Time;durP1;ratioP1;P1;durP2;ratioP2;P2;SDS_P1;SDS_P2;PMS_P1;PMS_P2;Temp;Humidity;BMP_temperature;BMP_pressure;BME280_temperature;BME280_humidity;BME280_pressure;Samples;Min_cycle;Max_cycle;Signal;HPM_P1;HPM_P2
2023/08/18 00:01:56;;;;;;;9.98;5.00;;;;;18.50;96547.00;;;;8347408;28;20234;-66
2023/08/18 00:06:01;;;;;;;6.45;5.13;;;;;18.40;96538.00;;;;8349601;28;20231;-66
2023/08/18 00:10:10;;;;;;;7.70;5.00;;;;;18.40;96535.00;;;;8351008;28;20241;-65
2023/08/18 00:14:13;;;;;;;5.65;5.03;;;;;18.40;96538.00;;;;8336865;28;20220;-65
2023/08/18 00:18:16;;;;;;;7.60;5.13;;;;;18.40;96518.00;;;;8360750;28;20288;-66
2023/08/18 00:22:22;;;;;;;6.13;5.00;;;;;18.40;96522.00;;;;8355685;28;20548;-66
2023/08/18 00:26:25;;;;;;;8.57;5.72;;;;;18.40;96522.00;;;;8348720;28;20250;-66
2023/08/18 00:30:31;;;;;;;6.40;4.95;;;;;18.40;96519.00;;;;8349490;28;20196;-66
2023/08/18 00:34:37;;;;;;;8.23;5.15;;;;;18.40;96516.00;;;;8365621;28;20228;-66
2023/08/18 00:38:47;;;;;;;6.32;5.22;;;;;18.30;96517.00;;;;8347043;28;20811;-66
2023/08/18 00:42:52;;;;;;;10.35;5.60;;;;;18.30;96525.00;;;;8347856;28;20672;-66
2023/08/18 00:46:56;;;;;;;6.28;5.13;;;;;18.30;96519.00;;;;8347475;28;20211;-66
2023/08/18 00:51:01;;;;;;;7.55;5.85;;;;;18.20;96518.00;;;;8337060;28;20898;-66
2023/08/18 00:55:07;;;;;;;8.30;5.55;;;;;18.10;96514.00;;;;8336649;28;20304;-66
2023/08/18 00:59:11;;;;;;;8.43;5.32;;;;;18.10;96507.00;;;;8348598;28;20231;-65
2023/08/18 01:03:14;;;;;;;7.47;5.05;;;;;18.00;96505.00;;;;8346204;28;20234;-66
2023/08/18 01:07:18;;;;;;;7.32;5.35;;;;;17.90;96506.00;;;;8350261;28;20203;-66
2023/08/18 01:11:42;;;;;;;14.13;5.50;;;;;17.90;96500.00;;;;8347240;28;20663;-66
2023/08/18 01:15:48;;;;;;;6.32;5.30;;;;;17.80;96510.00;;;;8341310;28;20254;-66
2023/08/18 01:19:53;;;;;;;7.45;5.45;;;;;17.70;96508.00;;;;8346668;28;20220;-66
2023/08/18 01:24:03;;;;;;;7.05;5.63;;;;;17.60;96495.00;;;;8347774;28;20209;-66
2023/08/18 01:28:09;;;;;;;7.57;5.45;;;;;17.60;96485.00;;;;8349836;28;20203;-66
2023/08/18 01:32:14;;;;;;;9.02;5.80;;;;;17.50;96489.00;;;;8345557;28;20307;-66
2023/08/18 01:36:25;;;;;;;9.75;6.03;;;;;17.40;96493.00;;;;8357082;28;20228;-66
2023/08/18 01:40:31;;;;;;;13.68;6.30;;;;;17.40;96489.00;;;;8357289;28;20207;-66
2023/08/18 01:44:35;;;;;;;8.27;5.97;;;;;17.40;96480.00;;;;8346865;28;20574;-65
2023/08/18 01:48:38;;;;;;;11.20;5.95;;;;;17.40;96483.00;;;;8346964;28;20279;-66
2023/08/18 01:52:42;;;;;;;9.23;6.20;;;;;17.40;96483.00;;;;8348670;28;20657;-66
2023/08/18 01:56:47;;;;;;;11.38;6.30;;;;;17.40;96480.00;;;;8351613;28;20319;-66
2023/08/18 02:00:53;;;;;;;9.73;7.03;;;;;17.40;96475.00;;;;8362623;28;20195;-66
2023/08/18 02:05:00;;;;;;;9.23;6.25;;;;;17.50;96475.00;;;;8354401;28;20781;-66
2023/08/18 02:09:05;;;;;;;7.60;5.53;;;;;17.50;96476.00;;;;8347946;28;21026;-65
2023/08/18 02:13:11;;;;;;;7.32;5.88;;;;;17.50;96471.00;;;;8343447;28;20193;-66
2023/08/18 02:17:15;;;;;;;9.77;5.82;;;;;17.40;96473.00;;;;8348917;28;20281;-65
2023/08/18 02:21:21;;;;;;;8.18;5.90;;;;;17.50;96468.00;;;;8350514;28;20197;-65
2023/08/18 02:25:25;;;;;;;8.07;6.10;;;;;17.60;96468.00;;;;8355266;28;20543;-65
2023/08/18 02:29:30;;;;;;;7.55;5.75;;;;;17.70;96480.00;;;;8336660;28;20304;-66
2023/08/18 02:33:37;;;;;;;7.55;5.65;;;;;17.70;96492.00;;;;8339429;28;20292;-66
2023/08/18 02:37:42;;;;;;;7.82;5.45;;;;;17.80;96494.00;;;;8351957;28;20200;-66
2023/08/18 02:41:47;;;;;;;7.65;5.47;;;;;17.80;96494.00;;;;8352227;28;20553;-66
2023/08/18 02:45:55;;;;;;;7.45;5.60;;;;;17.70;96504.00;;;;8348198;28;20214;-66
2023/08/18 02:49:58;;;;;;;8.27;5.82;;;;;17.70;96492.00;;;;8361116;28;20267;-66
2023/08/18 02:54:02;;;;;;;7.57;5.35;;;;;17.70;96489.00;;;;8357944;28;20236;-65
2023/08/18 02:58:06;;;;;;;6.05;5.20;;;;;17.60;96493.00;;;;8339580;28;20296;-66
2023/08/18 03:02:11;;;;;;;7.28;5.80;;;;;17.60;96501.00;;;;8371984;22;20233;-66
2023/08/18 03:06:14;;;;;;;11.20;6.53;;;;;17.60;96502.00;;;;8307886;28;20201;-65
2023/08/18 03:10:17;;;;;;;16.40;7.15;;;;;17.60;96498.00;;;;8328661;28;20216;-65
2023/08/18 03:14:23;;;;;;;8.13;5.72;;;;;17.60;96502.00;;;;8329439;28;20227;-66
2023/08/18 03:18:30;;;;;;;7.47;6.15;;;;;17.60;96511.00;;;;8333494;28;20208;-65
2023/08/18 03:22:34;;;;;;;10.15;6.60;;;;;17.60;96501.00;;;;8322145;28;20194;-64
2023/08/18 03:26:38;;;;;;;8.10;6.20;;;;;17.60;96509.00;;;;8314321;28;20689;-65
2023/08/18 03:30:42;;;;;;;7.38;5.72;;;;;17.60;96507.00;;;;8327492;28;20194;-64
2023/08/18 03:34:47;;;;;;;8.23;6.25;;;;;17.60;96507.00;;;;8313371;28;20697;-64
2023/08/18 03:38:53;;;;;;;8.88;6.13;;;;;17.50;96503.00;;;;8316967;28;20236;-65
2023/08/18 03:42:59;;;;;;;7.72;5.90;;;;;17.50;96502.00;;;;8296953;28;20234;-64
2023/08/18 03:47:03;;;;;;;7.80;6.13;;;;;17.50;96499.00;;;;8325757;28;20289;-65
2023/08/18 03:51:11;;;;;;;7.43;5.80;;;;;17.40;96502.00;;;;8316939;28;20208;-64
2023/08/18 03:55:14;;;;;;;8.70;5.88;;;;;17.40;96504.00;;;;8315978;28;20300;-64
2023/08/18 03:59:18;;;;;;;8.25;6.05;;;;;17.40;96508.00;;;;8305976;28;20211;-64
2023/08/18 04:03:26;;;;;;;13.68;5.90;;;;;17.40;96506.00;;;;8314514;28;20274;-64
2023/08/18 04:07:31;;;;;;;10.10;5.90;;;;;17.40;96506.00;;;;8312579;28;20197;-64
2023/08/18 04:11:34;;;;;;;8.25;5.93;;;;;17.40;96514.00;;;;8311187;28;20718;-64
2023/08/18 04:15:41;;;;;;;7.22;6.22;;;;;17.50;96511.00;;;;8293693;28;20232;-65
2023/08/18 04:19:44;;;;;;;11.13;7.20;;;;;17.50;96507.00;;;;8284312;28;20681;-65
2023/08/18 04:23:51;;;;;;;12.75;6.43;;;;;17.50;96498.00;;;;8238941;28;20197;-64
2023/08/18 04:27:54;;;;;;;15.25;6.13;;;;;17.60;96499.00;;;;8262970;28;20198;-65
2023/08/18 04:31:59;;;;;;;10.75;6.93;;;;;17.60;96494.00;;;;8312998;28;20936;-64
2023/08/18 04:36:02;;;;;;;7.40;5.93;;;;;17.70;96503.00;;;;8307839;28;20312;-65
2023/08/18 04:40:12;;;;;;;11.55;7.13;;;;;17.70;96499.00;;;;8315918;28;20891;-64
2023/08/18 04:44:15;;;;;;;10.80;6.50;;;;;17.80;96508.00;;;;8313470;28;20284;-65
2023/08/18 04:48:25;;;;;;;10.55;6.57;;;;;17.90;96512.00;;;;8294218;28;20203;-64
2023/08/18 04:52:28;;;;;;;12.02;7.22;;;;;18.00;96510.00;;;;8308232;28;20229;-64
2023/08/18 04:56:35;;;;;;;9.13;6.53;;;;;18.20;96509.00;;;;8310234;28;20275;-63
2023/08/18 05:00:39;;;;;;;9.77;6.68;;;;;18.30;96506.00;;;;8311408;28;20293;-63
2023/08/18 05:04:42;;;;;;;9.07;6.65;;;;;18.40;96514.00;;;;8308018;28;20233;-63
2023/08/18 05:08:47;;;;;;;10.05;6.60;;;;;18.60;96515.00;;;;8308906;28;20237;-63
2023/08/18 05:12:54;;;;;;;7.57;6.43;;;;;18.80;96508.00;;;;8305054;28;20197;-64
2023/08/18 05:16:57;;;;;;;11.65;6.72;;;;;19.00;96512.00;;;;8310037;28;20336;-64
2023/08/18 05:21:01;;;;;;;9.95;6.63;;;;;19.20;96503.00;;;;8305529;28;20211;-64
2023/08/18 05:25:05;;;;;;;9.35;6.03;;;;;19.40;96507.00;;;;8308637;28;20297;-64
2023/08/18 05:29:16;;;;;;;6.78;5.40;;;;;19.40;96502.00;;;;8301420;28;20212;-64
2023/08/18 05:33:19;;;;;;;8.65;5.68;;;;;19.50;96513.00;;;;8305350;28;20209;-64
2023/08/18 05:37:29;;;;;;;8.15;4.85;;;;;19.60;96509.00;;;;8303413;28;20221;-64
2023/08/18 05:41:34;;;;;;;6.38;5.20;;;;;19.70;96507.00;;;;8302072;28;20201;-63
2023/08/18 05:45:43;;;;;;;5.65;5.13;;;;;19.80;96508.00;;;;8307173;28;20280;-64
2023/08/18 05:49:53;;;;;;;6.70;4.90;;;;;19.90;96509.00;;;;8301052;28;20204;-64
2023/08/18 05:53:58;;;;;;;5.70;5.10;;;;;20.00;96507.00;;;;8306252;28;20209;-64
2023/08/18 05:58:02;;;;;;;6.35;5.03;;;;;20.10;96515.00;;;;8307010;28;20260;-64
2023/08/18 06:02:07;;;;;;;7.13;5.03;;;;;20.20;96519.00;;;;8303486;28;20248;-64
2023/08/18 06:06:10;;;;;;;8.38;5.22;;;;;20.30;96511.00;;;;8300259;28;20201;-65
2023/08/18 06:10:13;;;;;;;6.80;5.75;;;;;20.40;96514.00;;;;8300263;28;20790;-66
2023/08/18 06:14:16;;;;;;;6.30;5.70;;;;;20.50;96525.00;;;;8296909;28;20194;-65
2023/08/18 06:18:21;;;;;;;6.80;5.65;;;;;20.70;96521.00;;;;8306983;28;20245;-65
2023/08/18 06:22:24;;;;;;;8.05;5.32;;;;;20.80;96520.00;;;;8304527;28;20293;-65
2023/08/18 06:26:27;;;;;;;8.07;5.93;;;;;21.00;96512.00;;;;8291712;28;20202;-66
2023/08/18 06:30:30;;;;;;;6.78;6.05;;;;;21.20;96520.00;;;;8303331;28;20274;-65
2023/08/18 06:34:58;;;;;;;7.05;5.63;;;;;21.60;96521.00;;;;8281182;28;20803;-65
2023/08/18 06:39:03;;;;;;;5.65;5.15;;;;;22.00;96528.00;;;;8289969;28;20252;-65
2023/08/18 06:54:15;;;;;;;7.28;5.22;;;;;22.90;96535.00;;;;8244330;23;21182;-64
2023/08/18 06:58:18;;;;;;;5.07;4.57;;;;;23.30;96532.00;;;;8283185;28;20226;-65
2023/08/18 07:02:22;;;;;;;4.55;4.15;;;;;23.40;96532.00;;;;8305955;28;20216;-65
2023/08/18 07:06:25;;;;;;;6.93;4.40;;;;;23.60;96542.00;;;;8312925;28;20197;-65
2023/08/18 07:10:34;;;;;;;4.95;4.47;;;;;23.70;96544.00;;;;8316884;28;20688;-65
2023/08/18 07:14:37;;;;;;;5.03;4.57;;;;;23.90;96540.00;;;;8300010;28;20204;-65
2023/08/18 07:18:42;;;;;;;5.10;4.60;;;;;24.20;96540.00;;;;8308950;28;20235;-65
2023/08/18 07:22:50;;;;;;;6.45;4.47;;;;;25.00;96532.00;;;;8309975;28;20201;-65
2023/08/18 07:26:55;;;;;;;4.32;3.92;;;;;25.90;96545.00;;;;8302431;28;20202;-65
2023/08/18 07:31:03;;;;;;;7.13;4.43;;;;;27.00;96543.00;;;;8312212;28;20206;-65
2023/08/18 07:35:08;;;;;;;4.20;3.90;;;;;27.50;96550.00;;;;8301462;28;20205;-66
2023/08/18 07:39:13;;;;;;;4.40;4.00;;;;;27.80;96546.00;;;;8307407;28;20284;-65
2023/08/18 07:43:18;;;;;;;4.25;3.70;;;;;28.30;96550.00;;;;8307479;28;20905;-66
2023/08/18 07:47:24;;;;;;;5.20;3.72;;;;;29.00;96548.00;;;;8299232;28;20197;-66
2023/08/18 07:51:29;;;;;;;3.60;3.30;;;;;29.50;96546.00;;;;8307634;28;20237;-65
2023/08/18 07:55:32;;;;;;;3.95;3.65;;;;;30.30;96559.00;;;;8299549;28;20322;-66
2023/08/18 07:59:36;;;;;;;3.85;3.45;;;;;30.40;96555.00;;;;8304537;28;20201;-65
2023/08/18 08:03:40;;;;;;;4.45;4.05;;;;;30.30;96551.00;;;;8307249;28;20457;-66
2023/08/18 08:07:51;;;;;;;5.53;4.10;;;;;30.40;96557.00;;;;8304980;28;20606;-67
2023/08/18 08:11:54;;;;;;;3.90;3.60;;;;;30.70;96561.00;;;;8304453;28;20193;-67
2023/08/18 08:15:59;;;;;;;4.57;4.18;;;;;30.70;96558.00;;;;8303876;28;20364;-67
2023/08/18 08:20:15;;;;;;;4.20;3.63;;;;;30.80;96562.00;;;;8305726;28;20645;-67
2023/08/18 08:24:22;;;;;;;4.22;3.80;;;;;31.30;96567.00;;;;8311471;28;20212;-67
2023/08/18 08:28:31;;;;;;;3.97;3.67;;;;;31.90;96567.00;;;;8302505;28;20232;-67
2023/08/18 08:32:39;;;;;;;3.72;3.50;;;;;32.20;96570.00;;;;8296584;28;20209;-67
2023/08/18 08:36:42;;;;;;;4.78;3.67;;;;;32.50;96564.00;;;;8306980;28;20283;-68
2023/08/18 08:40:48;;;;;;;4.35;3.97;;;;;32.80;96570.00;;;;8308558;28;20301;-67
2023/08/18 08:44:55;;;;;;;7.28;4.00;;;;;32.60;96564.00;;;;8303265;28;20609;-66
2023/08/18 08:49:07;;;;;;;5.45;3.85;;;;;32.60;96575.00;;;;8306218;28;20201;-67
2023/08/18 08:53:14;;;;;;;5.30;4.82;;;;;33.00;96571.00;;;;8301409;28;20348;-75
2023/08/18 08:57:20;;;;;;;3.40;3.20;;;;;33.10;96578.00;;;;8298564;28;20224;-67
2023/08/18 09:01:24;;;;;;;3.97;3.67;;;;;33.00;96576.00;;;;8296262;28;20749;-68
2023/08/18 09:05:30;;;;;;;11.20;7.18;;;;;33.40;96582.00;;;;8303692;28;21029;-66
2023/08/18 09:09:33;;;;;;;3.97;3.67;;;;;33.70;96571.00;;;;8291482;28;20898;-66
2023/08/18 09:13:37;;;;;;;3.97;3.65;;;;;33.70;96572.00;;;;8307575;28;20766;-66
2023/08/18 09:17:54;;;;;;;8.80;3.95;;;;;33.90;96578.00;;;;8305739;28;20260;-66
2023/08/18 09:22:04;;;;;;;14.57;8.77;;;;;34.10;96564.00;;;;8301286;28;20739;-66
2023/08/18 09:26:08;;;;;;;19.15;11.23;;;;;34.20;96562.00;;;;8305250;28;20215;-66
2023/08/18 09:30:11;;;;;;;3.75;3.45;;;;;34.50;96567.00;;;;8303167;28;20200;-66
2023/08/18 09:34:27;;;;;;;3.42;3.22;;;;;34.70;96567.00;;;;8300489;28;20190;-66
2023/08/18 09:38:41;;;;;;;3.53;3.33;;;;;34.60;96568.00;;;;8298192;28;20681;-68
2023/08/18 09:42:44;;;;;;;4.15;3.78;;;;;34.90;96568.00;;;;8293931;28;20240;-69
2023/08/18 09:46:54;;;;;;;4.60;3.50;;;;;34.50;96563.00;;;;8303082;28;20201;-68
2023/08/18 09:51:00;;;;;;;3.95;3.50;;;;;33.90;96564.00;;;;8303551;28;20308;-67
2023/08/18 09:55:11;;;;;;;3.40;3.20;;;;;33.90;96561.00;;;;8305079;28;20201;-67
2023/08/18 09:59:21;;;;;;;4.30;3.97;;;;;33.90;96560.00;;;;8304070;28;20222;-67
2023/08/18 10:03:31;;;;;;;4.88;3.72;;;;;33.90;96557.00;;;;8307268;28;20226;-67
2023/08/18 10:07:35;;;;;;;13.43;9.63;;;;;34.20;96550.00;;;;8305718;28;20706;-68
2023/08/18 10:11:42;;;;;;;4.13;3.70;;;;;34.90;96552.00;;;;8303327;28;20194;-69
2023/08/18 10:15:55;;;;;;;3.83;3.53;;;;;35.30;96556.00;;;;8307212;28;20276;-68
2023/08/18 10:20:03;;;;;;;4.30;3.70;;;;;35.50;96558.00;;;;8309957;28;20228;-69
2023/08/18 10:24:06;;;;;;;4.13;3.72;;;;;35.70;96560.00;;;;8308520;28;20252;-69
2023/08/18 10:28:17;;;;;;;4.82;3.75;;;;;36.00;96559.00;;;;8313947;28;20233;-68
2023/08/18 10:32:23;;;;;;;4.15;3.75;;;;;36.40;96559.00;;;;8308578;28;20232;-69
2023/08/18 10:36:29;;;;;;;3.88;3.47;;;;;36.70;96564.00;;;;8312539;28;20201;-68
2023/08/18 10:40:35;;;;;;;4.15;3.85;;;;;37.10;96560.00;;;;8307208;28;20205;-68
2023/08/18 10:44:55;;;;;;;3.88;3.53;;;;;37.10;96549.00;;;;8304733;28;20681;-67
2023/08/18 10:49:01;;;;;;;4.03;3.72;;;;;37.10;96558.00;;;;8306427;28;20288;-69
2023/08/18 10:53:07;;;;;;;3.78;3.55;;;;;37.10;96549.00;;;;8307310;28;20236;-68
2023/08/18 10:57:14;;;;;;;4.38;3.97;;;;;37.30;96546.00;;;;8310553;28;20670;-68
2023/08/18 11:01:20;;;;;;;4.47;3.42;;;;;37.30;96542.00;;;;8306598;28;20285;-68
2023/08/18 11:05:24;;;;;;;3.95;3.65;;;;;37.00;96542.00;;;;8308488;28;20208;-68
2023/08/18 11:09:27;;;;;;;4.05;3.70;;;;;36.80;96543.00;;;;8309396;28;20201;-68
2023/08/18 11:13:30;;;;;;;4.07;3.78;;;;;37.00;96538.00;;;;8308252;28;21510;-68
2023/08/18 11:17:37;;;;;;;3.88;3.58;;;;;37.40;96535.00;;;;8303510;28;20625;-68
2023/08/18 11:21:43;;;;;;;3.95;3.65;;;;;37.70;96537.00;;;;8310473;28;20202;-68
2023/08/18 11:25:48;;;;;;;5.57;3.70;;;;;37.90;96533.00;;;;8298918;28;20197;-68
2023/08/18 11:29:52;;;;;;;3.83;3.53;;;;;38.20;96531.00;;;;8311507;28;20794;-68
2023/08/18 11:33:57;;;;;;;6.20;3.38;;;;;38.60;96532.00;;;;8304977;28;20225;-67
2023/08/18 11:38:01;;;;;;;4.13;3.75;;;;;38.90;96525.00;;;;8303213;28;20324;-70
2023/08/18 11:42:05;;;;;;;4.43;3.58;;;;;38.60;96524.00;;;;8309457;28;20201;-66
2023/08/18 11:46:29;;;;;;;4.20;3.70;;;;;38.50;96528.00;;;;8298796;28;20233;-66
2023/08/18 11:50:37;;;;;;;4.80;3.67;;;;;38.20;96524.00;;;;8296125;28;20224;-66
2023/08/18 11:54:46;;;;;;;5.80;3.50;;;;;38.30;96529.00;;;;8296435;28;20876;-66
2023/08/18 11:58:57;;;;;;;5.55;3.72;;;;;37.80;96522.00;;;;8287683;28;20245;-66
2023/08/18 12:03:00;;;;;;;6.25;3.20;;;;;37.40;96528.00;;;;8282889;28;20206;-66
2023/08/18 12:07:05;;;;;;;4.03;3.65;;;;;37.20;96512.00;;;;8288877;28;20842;-66
2023/08/18 12:11:11;;;;;;;3.92;3.45;;;;;36.80;96515.00;;;;8290213;28;20284;-66
2023/08/18 12:15:15;;;;;;;3.75;3.45;;;;;36.10;96509.00;;;;8291206;28;20320;-66
2023/08/18 12:19:20;;;;;;;4.60;3.25;;;;;35.30;96516.00;;;;8303494;28;20303;-66
2023/08/18 12:23:26;;;;;;;3.90;3.42;;;;;34.50;96510.00;;;;8290005;28;20205;-66
2023/08/18 12:27:29;;;;;;;3.72;3.05;;;;;33.80;96500.00;;;;8292316;28;20242;-66
2023/08/18 12:31:36;;;;;;;3.42;3.13;;;;;33.70;96499.00;;;;8292509;28;20201;-66
2023/08/18 12:35:39;;;;;;;3.58;3.17;;;;;33.70;96508.00;;;;8286966;28;20203;-66
2023/08/18 12:39:43;;;;;;;3.47;3.17;;;;;33.80;96503.00;;;;8284640;28;20243;-66
2023/08/18 12:43:54;;;;;;;4.00;3.70;;;;;33.90;96501.00;;;;8300690;28;20229;-68
2023/08/18 12:47:57;;;;;;;4.28;3.20;;;;;33.90;96503.00;;;;8294473;28;20281;-67
2023/08/18 12:52:04;;;;;;;3.58;3.13;;;;;33.90;96498.00;;;;8304719;28;20436;-66
2023/08/18 12:56:14;;;;;;;3.92;3.63;;;;;33.80;96500.00;;;;8297128;28;20325;-66
2023/08/18 13:00:17;;;;;;;3.60;3.30;;;;;33.80;96494.00;;;;8297404;28;20236;-66
2023/08/18 13:04:20;;;;;;;3.97;3.25;;;;;33.70;96493.00;;;;8304080;28;20288;-66
2023/08/18 13:08:23;;;;;;;3.38;3.17;;;;;33.70;96499.00;;;;8285666;28;20201;-67
2023/08/18 13:12:28;;;;;;;3.40;3.10;;;;;33.70;96495.00;;;;8317710;28;20216;-66
2023/08/18 13:16:31;;;;;;;3.83;3.58;;;;;33.90;96492.00;;;;8299415;28;20276;-67
2023/08/18 13:20:38;;;;;;;3.45;3.10;;;;;34.00;96476.00;;;;8308602;28;20227;-66
2023/08/18 13:24:41;;;;;;;3.85;3.55;;;;;34.00;96488.00;;;;8301010;28;20288;-66
2023/08/18 13:28:57;;;;;;;3.75;3.45;;;;;34.00;96485.00;;;;8298872;28;20723;-66
2023/08/18 13:33:02;;;;;;;3.53;3.22;;;;;34.20;96490.00;;;;8293683;28;20276;-66
2023/08/18 13:37:05;;;;;;;3.30;3.10;;;;;34.40;96486.00;;;;8293852;28;20272;-66
2023/08/18 13:41:08;;;;;;;3.50;3.30;;;;;34.70;96487.00;;;;8304808;28;20225;-66
2023/08/18 13:45:13;;;;;;;3.38;2.88;;;;;35.30;96489.00;;;;8300284;28;20739;-66
2023/08/18 13:49:18;;;;;;;3.25;3.10;;;;;36.00;96478.00;;;;8299949;28;20280;-66
2023/08/18 13:53:21;;;;;;;3.95;2.92;;;;;36.70;96476.00;;;;8303118;28;20869;-66
2023/08/18 13:57:25;;;;;;;3.28;3.08;;;;;37.40;96486.00;;;;8316002;28;20198;-66
2023/08/18 14:01:29;;;;;;;3.15;2.97;;;;;38.10;96485.00;;;;8304979;28;20329;-66
2023/08/18 14:05:34;;;;;;;3.22;3.03;;;;;38.60;96479.00;;;;8290284;28;20197;-67
2023/08/18 14:09:37;;;;;;;3.28;3.08;;;;;39.00;96473.00;;;;8302056;28;20611;-66
2023/08/18 14:13:43;;;;;;;3.20;2.85;;;;;39.20;96473.00;;;;8300240;28;20309;-67
2023/08/18 14:17:48;;;;;;;5.65;3.13;;;;;39.30;96469.00;;;;8314507;28;20613;-67
2023/08/18 14:21:51;;;;;;;2.83;2.63;;;;;39.60;96468.00;;;;8304692;28;20201;-67
2023/08/18 14:25:55;;;;;;;3.20;2.78;;;;;40.00;96468.00;;;;8300653;28;20711;-66
2023/08/18 14:29:58;;;;;;;4.97;2.90;;;;;40.20;96466.00;;;;8310712;28;20197;-67
2023/08/18 14:34:02;;;;;;;3.55;2.83;;;;;40.00;96458.00;;;;8304866;28;20898;-67
2023/08/18 14:38:06;;;;;;;2.97;2.83;;;;;40.00;96462.00;;;;8308649;28;20233;-67
2023/08/18 14:42:09;;;;;;;2.80;2.70;;;;;39.80;96461.00;;;;8300425;28;20221;-66
2023/08/18 14:46:12;;;;;;;3.13;2.92;;;;;39.60;96464.00;;;;8307920;28;20309;-66
2023/08/18 14:50:19;;;;;;;3.20;3.00;;;;;39.60;96456.00;;;;8302311;28;20198;-66
2023/08/18 14:54:25;;;;;;;3.10;2.90;;;;;39.20;96451.00;;;;8295668;28;20225;-67
2023/08/18 14:58:32;;;;;;;3.28;3.00;;;;;39.00;96451.00;;;;8293098;28;20261;-66
2023/08/18 15:02:37;;;;;;;2.88;2.78;;;;;38.10;96455.00;;;;8282764;28;20632;-67
2023/08/18 15:06:41;;;;;;;4.75;3.20;;;;;37.40;96440.00;;;;8307856;28;20193;-67
2023/08/18 15:10:46;;;;;;;3.10;2.88;;;;;36.90;96433.00;;;;8302474;28;20198;-67
2023/08/18 15:14:50;;;;;;;3.05;2.85;;;;;36.90;96436.00;;;;8293231;28;20194;-66
2023/08/18 15:18:54;;;;;;;3.67;3.38;;;;;36.80;96438.00;;;;8293863;28;20315;-66
2023/08/18 15:22:58;;;;;;;3.42;3.13;;;;;37.10;96431.00;;;;8308477;28;20214;-66
2023/08/18 15:27:05;;;;;;;3.50;3.20;;;;;37.30;96429.00;;;;8307828;28;20201;-66
2023/08/18 15:31:14;;;;;;;3.45;3.15;;;;;37.50;96434.00;;;;8310654;28;20289;-66
2023/08/18 15:35:21;;;;;;;3.60;3.38;;;;;37.40;96440.00;;;;8302621;28;20202;-66
2023/08/18 15:39:29;;;;;;;3.63;3.42;;;;;36.80;96425.00;;;;8300258;28;20308;-66
2023/08/18 15:43:35;;;;;;;4.57;3.22;;;;;36.60;96420.00;;;;8303181;28;20348;-66
2023/08/18 15:47:43;;;;;;;3.20;2.90;;;;;36.60;96431.00;;;;8306921;28;20843;-66
2023/08/18 15:51:46;;;;;;;3.40;3.20;;;;;36.80;96430.00;;;;8295862;28;20228;-65
2023/08/18 15:55:51;;;;;;;4.47;3.22;;;;;36.70;96434.00;;;;8304692;28;20191;-66
2023/08/18 15:59:54;;;;;;;5.20;3.40;;;;;36.60;96436.00;;;;8308815;28;20252;-66
2023/08/18 16:03:57;;;;;;;3.38;3.10;;;;;36.20;96444.00;;;;8305097;28;22199;-65
2023/08/18 16:08:02;;;;;;;3.45;3.25;;;;;35.80;96441.00;;;;8310138;28;20293;-65
2023/08/18 16:12:11;;;;;;;10.82;3.67;;;;;35.50;96441.00;;;;8305469;28;20197;-66
2023/08/18 16:16:16;;;;;;;7.55;3.60;;;;;35.70;96442.00;;;;8295353;28;20205;-65
2023/08/18 16:20:20;;;;;;;3.80;3.50;;;;;35.90;96445.00;;;;8301537;28;20214;-66
2023/08/18 16:24:23;;;;;;;3.38;3.17;;;;;35.90;96449.00;;;;8295992;28;20201;-66
2023/08/18 16:28:30;;;;;;;3.42;3.22;;;;;36.00;96443.00;;;;8301614;28;20201;-66
2023/08/18 16:32:37;;;;;;;6.20;5.22;;;;;36.20;96443.00;;;;8296451;28;20268;-65
2023/08/18 16:36:40;;;;;;;7.20;5.00;;;;;36.40;96443.00;;;;8303423;28;20204;-64
2023/08/18 16:40:44;;;;;;;8.15;3.70;;;;;36.70;96438.00;;;;8298912;28;20275;-66
2023/08/18 16:44:49;;;;;;;3.03;2.83;;;;;36.90;96439.00;;;;8305964;28;20252;-65
2023/08/18 16:48:53;;;;;;;3.58;3.35;;;;;37.10;96438.00;;;;8304450;28;20660;-66
2023/08/18 16:52:57;;;;;;;4.80;3.67;;;;;37.20;96424.00;;;;8303626;28;20363;-65
2023/08/18 16:57:03;;;;;;;3.00;2.85;;;;;37.30;96425.00;;;;8294620;28;20651;-64
2023/08/18 17:01:14;;;;;;;5.38;3.13;;;;;37.60;96422.00;;;;8309146;28;21548;-64
2023/08/18 17:05:19;;;;;;;4.13;3.10;;;;;37.50;96423.00;;;;8288833;28;20247;-64
2023/08/18 17:09:22;;;;;;;6.47;3.65;;;;;37.50;96424.00;;;;8306534;28;20205;-63
2023/08/18 17:13:27;;;;;;;4.40;3.80;;;;;37.20;96426.00;;;;8300845;28;20281;-64
2023/08/18 17:17:37;;;;;;;4.82;3.42;;;;;37.00;96420.00;;;;8306102;28;20288;-64
2023/08/18 17:21:41;;;;;;;2.97;2.78;;;;;36.70;96421.00;;;;8301461;28;20328;-64
2023/08/18 17:25:47;;;;;;;6.57;3.63;;;;;36.40;96421.00;;;;8286594;28;20292;-64
2023/08/18 17:29:58;;;;;;;5.65;3.80;;;;;35.80;96424.00;;;;8293333;28;20206;-64
2023/08/18 17:34:04;;;;;;;4.18;3.60;;;;;34.90;96433.00;;;;8302312;28;20202;-63
2023/08/18 17:38:10;;;;;;;6.93;3.63;;;;;34.10;96431.00;;;;8300562;28;20312;-63
2023/08/18 17:42:15;;;;;;;4.15;3.78;;;;;33.30;96438.00;;;;8302834;28;20316;-63
2023/08/18 17:46:19;;;;;;;7.43;3.38;;;;;32.70;96437.00;;;;8298932;28;20209;-63
2023/08/18 17:50:26;;;;;;;6.53;3.75;;;;;32.10;96443.00;;;;8297407;28;20202;-63
2023/08/18 17:54:32;;;;;;;10.27;4.55;;;;;31.60;96443.00;;;;8281556;28;20214;-64
2023/08/18 17:58:38;;;;;;;4.30;3.90;;;;;30.90;96441.00;;;;8305671;28;20201;-65
2023/08/18 18:02:42;;;;;;;5.43;4.72;;;;;30.30;96443.00;;;;8283727;28;20225;-65
2023/08/18 18:06:51;;;;;;;5.63;4.63;;;;;29.80;96454.00;;;;8290159;28;20280;-65
2023/08/18 18:10:56;;;;;;;4.15;3.85;;;;;29.30;96451.00;;;;8295682;28;20213;-65
2023/08/18 18:15:00;;;;;;;6.00;4.10;;;;;28.80;96456.00;;;;8291654;28;20212;-65
2023/08/18 18:19:05;;;;;;;6.32;4.15;;;;;28.30;96456.00;;;;8299114;28;20198;-64
2023/08/18 18:23:11;;;;;;;7.00;4.70;;;;;27.80;96459.00;;;;8289622;28;20201;-65
2023/08/18 18:27:16;;;;;;;6.47;4.25;;;;;27.40;96455.00;;;;8293909;28;20210;-64
2023/08/18 18:31:21;;;;;;;5.47;4.18;;;;;27.00;96463.00;;;;8293953;28;20206;-65
2023/08/18 18:35:27;;;;;;;7.55;4.28;;;;;26.70;96461.00;;;;8287991;28;20962;-65
2023/08/18 18:39:34;;;;;;;5.15;4.72;;;;;26.40;96468.00;;;;8306947;28;20343;-65
2023/08/18 18:43:39;;;;;;;7.07;4.13;;;;;26.00;96472.00;;;;8304859;28;20228;-65
2023/08/18 18:47:43;;;;;;;4.80;4.30;;;;;25.70;96473.00;;;;8308879;28;20197;-64
2023/08/18 18:51:48;;;;;;;8.57;4.32;;;;;25.40;96476.00;;;;8314136;28;20225;-64
2023/08/18 18:55:54;;;;;;;5.05;4.55;;;;;25.20;96480.00;;;;8310763;28;20276;-64
2023/08/18 19:00:05;;;;;;;8.55;4.40;;;;;25.10;96486.00;;;;8303241;28;20782;-64
2023/08/18 19:04:10;;;;;;;8.15;5.18;;;;;24.90;96476.00;;;;8298604;28;20205;-65
2023/08/18 19:08:16;;;;;;;8.95;5.30;;;;;24.70;96486.00;;;;8286792;28;20289;-65
2023/08/18 19:12:24;;;;;;;7.93;6.05;;;;;24.50;96469.00;;;;8299898;28;20344;-64
2023/08/18 19:16:28;;;;;;;9.35;6.30;;;;;24.20;96480.00;;;;8300749;28;20853;-65
2023/08/18 19:20:31;;;;;;;14.75;9.15;;;;;24.00;96484.00;;;;8309833;28;20240;-64
2023/08/18 19:24:36;;;;;;;14.05;8.85;;;;;23.80;96477.00;;;;8308051;28;20640;-64
2023/08/18 19:28:47;;;;;;;10.05;7.22;;;;;23.70;96474.00;;;;8294270;28;20244;-63
2023/08/18 19:32:56;;;;;;;9.75;6.20;;;;;23.50;96486.00;;;;8304854;28;20201;-64
2023/08/18 19:37:03;;;;;;;7.85;6.20;;;;;23.40;96477.00;;;;8312492;28;20201;-64
2023/08/18 19:41:07;;;;;;;8.77;5.60;;;;;23.20;96477.00;;;;8313473;28;20256;-64
2023/08/18 19:45:12;;;;;;;6.05;5.10;;;;;23.10;96479.00;;;;8307602;28;20232;-64
2023/08/18 19:49:17;;;;;;;8.07;5.60;;;;;23.00;96477.00;;;;8314119;28;20240;-64
2023/08/18 19:53:24;;;;;;;11.77;5.07;;;;;22.90;96475.00;;;;8307896;28;20281;-64
2023/08/18 19:57:30;;;;;;;6.28;5.38;;;;;22.80;96469.00;;;;8306130;28;20340;-63
2023/08/18 20:01:35;;;;;;;5.97;5.00;;;;;22.80;96480.00;;;;8310398;28;20343;-63
2023/08/18 20:05:38;;;;;;;6.45;5.70;;;;;22.70;96487.00;;;;8306998;28;20222;-64
2023/08/18 20:09:47;;;;;;;7.72;5.72;;;;;22.60;96487.00;;;;8312266;28;20197;-63
2023/08/18 20:13:50;;;;;;;9.32;5.82;;;;;22.50;96487.00;;;;8310248;28;20201;-63
2023/08/18 20:17:57;;;;;;;9.00;5.15;;;;;22.40;96492.00;;;;8302366;28;20276;-63
2023/08/18 20:22:05;;;;;;;5.95;5.45;;;;;22.40;96494.00;;;;8310400;28;20229;-63
2023/08/18 20:26:12;;;;;;;8.55;5.47;;;;;22.40;96495.00;;;;8299570;28;20293;-63
2023/08/18 20:30:16;;;;;;;5.50;5.00;;;;;22.40;96494.00;;;;8310721;28;20277;-63
2023/08/18 20:34:23;;;;;;;6.75;5.50;;;;;22.30;96492.00;;;;8309988;28;20228;-62
2023/08/18 20:38:27;;;;;;;6.85;5.32;;;;;22.30;96497.00;;;;8306020;28;20249;-63